sensor_id;sensor_type;location;lat;lon;timestamp;temperature;humidity
65040;HTU21D;51606;45.000;38.612;2022-10-17T06:17:44;12.27;72.79
65040;HTU21D;51606;45.000;38.612;2022-10-17T06:20:11;12.30;72.73
65040;HTU21D;51606;45.000;38.612;2022-10-17T06:22:37;12.34;72.69
65040;HTU21D;51606;45.000;38.612;2022-10-17T06:25:10;12.38;72.59
65040;HTU21D;51606;45.000;38.612;2022-10-17T06:27:37;12.44;72.52
65040;HTU21D;51606;45.000;38.612;2022-10-17T06:30:04;12.48;72.49
65040;HTU21D;51606;45.000;38.612;2022-10-17T06:32:30;12.51;72.51
65040;HTU21D;51606;45.000;38.612;2022-10-17T06:34:57;12.53;72.46
65040;HTU21D;51606;45.000;38.612;2022-10-17T06:37:23;12.61;72.39
65040;HTU21D;51606;45.000;38.612;2022-10-17T06:39:49;12.66;72.33
65040;HTU21D;51606;45.000;38.612;2022-10-17T06:42:19;12.69;72.34
65040;HTU21D;51606;45.000;38.612;2022-10-17T06:44:54;12.71;72.29
65040;HTU21D;51606;45.000;38.612;2022-10-17T06:47:39;12.71;72.32
65040;HTU21D;51606;45.000;38.612;2022-10-17T06:50:38;12.69;72.37
65040;HTU21D;51606;45.000;38.612;2022-10-17T06:53:10;12.67;72.44
65040;HTU21D;51606;45.000;38.612;2022-10-17T06:56:09;12.66;72.46
65040;HTU21D;51606;45.000;38.612;2022-10-17T06:58:51;12.63;72.50
65040;HTU21D;51606;45.000;38.612;2022-10-17T07:01:30;12.62;72.53
65040;HTU21D;51606;45.000;38.612;2022-10-17T07:03:59;12.65;72.51
65040;HTU21D;51606;45.000;38.612;2022-10-17T07:06:25;12.65;72.50
65040;HTU21D;51606;45.000;38.612;2022-10-17T07:08:54;12.65;72.54
65040;HTU21D;51606;45.000;38.612;2022-10-17T07:11:21;12.69;72.55
65040;HTU21D;51606;45.000;38.612;2022-10-17T07:13:50;12.73;72.51
65040;HTU21D;51606;45.000;38.612;2022-10-17T07:16:16;12.75;72.50
65040;HTU21D;51606;45.000;38.612;2022-10-17T07:19:02;12.77;72.58
65040;HTU21D;51606;45.000;38.612;2022-10-17T07:21:33;12.77;72.49
65040;HTU21D;51606;45.000;38.612;2022-10-17T07:24:00;12.79;72.52
65040;HTU21D;51606;45.000;38.612;2022-10-17T07:26:26;12.82;72.49
65040;HTU21D;51606;45.000;38.612;2022-10-17T07:28:54;12.86;72.47
65040;HTU21D;51606;45.000;38.612;2022-10-17T07:31:30;12.87;72.44
65040;HTU21D;51606;45.000;38.612;2022-10-17T07:33:59;12.91;72.49
65040;HTU21D;51606;45.000;38.612;2022-10-17T07:36:26;13.00;72.42
65040;HTU21D;51606;45.000;38.612;2022-10-17T07:38:54;13.07;72.33
65040;HTU21D;51606;45.000;38.612;2022-10-17T07:41:24;13.12;72.29
65040;HTU21D;51606;45.000;38.612;2022-10-17T07:43:50;13.16;72.29
65040;HTU21D;51606;45.000;38.612;2022-10-17T07:46:20;13.17;72.34
65040;HTU21D;51606;45.000;38.612;2022-10-17T07:48:47;13.17;72.40
65040;HTU21D;51606;45.000;38.612;2022-10-17T07:51:13;13.17;72.48
65040;HTU21D;51606;45.000;38.612;2022-10-17T07:53:40;13.20;72.51
65040;HTU21D;51606;45.000;38.612;2022-10-17T07:56:08;13.27;72.51
65040;HTU21D;51606;45.000;38.612;2022-10-17T07:58:36;13.36;72.45
65040;HTU21D;51606;45.000;38.612;2022-10-17T08:01:07;13.46;72.41
65040;HTU21D;51606;45.000;38.612;2022-10-17T08:06:22;13.76;72.11
65040;HTU21D;51606;45.000;38.612;2022-10-17T08:08:49;13.92;71.90
65040;HTU21D;51606;45.000;38.612;2022-10-17T08:11:15;14.08;71.76
65040;HTU21D;51606;45.000;38.612;2022-10-17T08:13:42;14.15;71.75
65040;HTU21D;51606;45.000;38.612;2022-10-17T08:16:10;14.20;71.81
65040;HTU21D;51606;45.000;38.612;2022-10-17T08:18:38;14.29;71.82
65040;HTU21D;51606;45.000;38.612;2022-10-17T08:21:05;14.47;71.74
65040;HTU21D;51606;45.000;38.612;2022-10-17T08:23:34;14.70;71.48
65040;HTU21D;51606;45.000;38.612;2022-10-17T08:26:01;14.87;71.31
65040;HTU21D;51606;45.000;38.612;2022-10-17T08:28:28;14.94;71.30
65040;HTU21D;51606;45.000;38.612;2022-10-17T08:31:05;14.99;71.38
65040;HTU21D;51606;45.000;38.612;2022-10-17T08:33:32;15.09;71.37
65040;HTU21D;51606;45.000;38.612;2022-10-17T08:35:59;15.17;71.33
65040;HTU21D;51606;45.000;38.612;2022-10-17T08:38:28;15.23;71.37
65040;HTU21D;51606;45.000;38.612;2022-10-17T08:40:59;15.33;71.35
65040;HTU21D;51606;45.000;38.612;2022-10-17T08:43:35;15.47;71.23
65040;HTU21D;51606;45.000;38.612;2022-10-17T08:46:05;15.54;71.23
65040;HTU21D;51606;45.000;38.612;2022-10-17T08:48:39;15.60;71.27
65040;HTU21D;51606;45.000;38.612;2022-10-17T08:51:15;15.68;71.32
65040;HTU21D;51606;45.000;38.612;2022-10-17T08:53:52;15.74;71.25
65040;HTU21D;51606;45.000;38.612;2022-10-17T08:56:29;15.66;71.32
65040;HTU21D;51606;45.000;38.612;2022-10-17T08:58:58;15.59;71.53
65040;HTU21D;51606;45.000;38.612;2022-10-17T09:01:42;15.55;71.70
65040;HTU21D;51606;45.000;38.612;2022-10-17T09:07:37;15.51;71.79
65040;HTU21D;51606;45.000;38.612;2022-10-17T09:16:03;15.61;71.63
65040;HTU21D;51606;45.000;38.612;2022-10-17T09:19:03;15.55;71.74
65040;HTU21D;51606;45.000;38.612;2022-10-17T09:21:50;15.45;71.84
65040;HTU21D;51606;45.000;38.612;2022-10-17T09:24:46;15.39;71.99
65040;HTU21D;51606;45.000;38.612;2022-10-17T09:27:24;15.34;71.85
65040;HTU21D;51606;45.000;38.612;2022-10-17T09:30:12;15.25;72.06
65040;HTU21D;51606;45.000;38.612;2022-10-17T09:32:40;15.19;72.09
65040;HTU21D;51606;45.000;38.612;2022-10-17T09:35:12;15.16;72.24
65040;HTU21D;51606;45.000;38.612;2022-10-17T09:37:40;15.14;72.24
65040;HTU21D;51606;45.000;38.612;2022-10-17T09:40:14;15.12;72.33
65040;HTU21D;51606;45.000;38.612;2022-10-17T09:42:44;15.10;72.37
65040;HTU21D;51606;45.000;38.612;2022-10-17T09:45:18;15.09;72.35
65040;HTU21D;51606;45.000;38.612;2022-10-17T09:47:53;15.09;72.32
65040;HTU21D;51606;45.000;38.612;2022-10-17T09:50:27;15.11;72.32
65040;HTU21D;51606;45.000;38.612;2022-10-17T09:53:02;15.11;72.29
65040;HTU21D;51606;45.000;38.612;2022-10-17T09:56:02;15.16;72.23
65040;HTU21D;51606;45.000;38.612;2022-10-17T09:58:51;15.16;72.20
65040;HTU21D;51606;45.000;38.612;2022-10-17T10:01:26;15.15;72.16
65040;HTU21D;51606;45.000;38.612;2022-10-17T10:04:14;15.13;72.26
65040;HTU21D;51606;45.000;38.612;2022-10-17T10:09:47;15.08;72.24
65040;HTU21D;51606;45.000;38.612;2022-10-17T10:12:18;15.04;72.35
65040;HTU21D;51606;45.000;38.612;2022-10-17T10:14:45;15.01;72.40
65040;HTU21D;51606;45.000;38.612;2022-10-17T10:17:38;15.00;72.45
65040;HTU21D;51606;45.000;38.612;2022-10-17T10:20:38;14.98;72.45
65040;HTU21D;51606;45.000;38.612;2022-10-17T10:23:17;14.96;72.45
65040;HTU21D;51606;45.000;38.612;2022-10-17T10:25:56;14.93;72.49
65040;HTU21D;51606;45.000;38.612;2022-10-17T10:28:26;14.88;72.51
65040;HTU21D;51606;45.000;38.612;2022-10-17T10:30:54;14.85;72.58
65040;HTU21D;51606;45.000;38.612;2022-10-17T10:33:24;14.83;72.60
65040;HTU21D;51606;45.000;38.612;2022-10-17T10:35:54;14.82;72.64
65040;HTU21D;51606;45.000;38.612;2022-10-17T10:38:21;14.80;72.63
65040;HTU21D;51606;45.000;38.612;2022-10-17T10:40:56;14.78;72.65
65040;HTU21D;51606;45.000;38.612;2022-10-17T10:43:35;14.78;72.67
65040;HTU21D;51606;45.000;38.612;2022-10-17T10:46:17;14.81;72.63
65040;HTU21D;51606;45.000;38.612;2022-10-17T10:48:55;14.81;72.60
65040;HTU21D;51606;45.000;38.612;2022-10-17T10:51:43;14.84;72.59
65040;HTU21D;51606;45.000;38.612;2022-10-17T10:57:03;14.92;72.40
65040;HTU21D;51606;45.000;38.612;2022-10-17T11:02:45;14.99;72.36
65040;HTU21D;51606;45.000;38.612;2022-10-17T11:05:33;15.02;72.30
65040;HTU21D;51606;45.000;38.612;2022-10-17T11:11:12;15.10;72.25
65040;HTU21D;51606;45.000;38.612;2022-10-17T11:22:42;15.19;72.16
65040;HTU21D;51606;45.000;38.612;2022-10-17T11:25:34;15.22;72.14
65040;HTU21D;51606;45.000;38.612;2022-10-17T11:28:03;15.26;72.09
65040;HTU21D;51606;45.000;38.612;2022-10-17T11:31:04;15.27;72.13
65040;HTU21D;51606;45.000;38.612;2022-10-17T11:36:08;15.33;72.03
65040;HTU21D;51606;45.000;38.612;2022-10-17T11:38:51;15.33;72.06
65040;HTU21D;51606;45.000;38.612;2022-10-17T11:43:57;15.30;72.14
65040;HTU21D;51606;45.000;38.612;2022-10-17T11:46:26;15.28;72.15
65040;HTU21D;51606;45.000;38.612;2022-10-17T11:49:15;15.28;72.20
65040;HTU21D;51606;45.000;38.612;2022-10-17T11:51:45;15.25;72.19
65040;HTU21D;51606;45.000;38.612;2022-10-17T11:54:21;15.24;72.25
65040;HTU21D;51606;45.000;38.612;2022-10-17T12:00:18;15.19;72.28
65040;HTU21D;51606;45.000;38.612;2022-10-17T12:05:33;15.19;72.25
65040;HTU21D;51606;45.000;38.612;2022-10-17T12:08:12;15.19;72.09
65040;HTU21D;51606;45.000;38.612;2022-10-17T12:27:41;15.06;72.18
65040;HTU21D;51606;45.000;38.612;2022-10-17T12:30:26;15.09;72.23
65040;HTU21D;51606;45.000;38.612;2022-10-17T12:35:36;15.13;72.14
65040;HTU21D;51606;45.000;38.612;2022-10-17T12:38:24;15.14;72.19
65040;HTU21D;51606;45.000;38.612;2022-10-17T12:40:52;15.14;72.13
65040;HTU21D;51606;45.000;38.612;2022-10-17T12:46:02;15.15;72.13
65040;HTU21D;51606;45.000;38.612;2022-10-17T12:48:58;15.18;72.13
65040;HTU21D;51606;45.000;38.612;2022-10-17T12:51:26;15.17;72.06
65040;HTU21D;51606;45.000;38.612;2022-10-17T12:56:40;15.18;72.14
65040;HTU21D;51606;45.000;38.612;2022-10-17T12:59:20;15.22;72.13
65040;HTU21D;51606;45.000;38.612;2022-10-17T13:01:50;15.18;72.09
65040;HTU21D;51606;45.000;38.612;2022-10-17T13:04:18;15.18;72.11
65040;HTU21D;51606;45.000;38.612;2022-10-17T13:06:51;15.19;72.16
65040;HTU21D;51606;45.000;38.612;2022-10-17T13:11:51;15.18;72.16
65040;HTU21D;51606;45.000;38.612;2022-10-17T13:14:20;15.18;72.19
65040;HTU21D;51606;45.000;38.612;2022-10-17T13:16:59;15.19;72.22
65040;HTU21D;51606;45.000;38.612;2022-10-17T13:19:30;15.16;72.23
65040;HTU21D;51606;45.000;38.612;2022-10-17T13:22:01;15.15;72.25
65040;HTU21D;51606;45.000;38.612;2022-10-17T13:24:38;15.13;72.30
65040;HTU21D;51606;45.000;38.612;2022-10-17T13:27:25;15.11;72.34
65040;HTU21D;51606;45.000;38.612;2022-10-17T13:30:16;15.07;72.34
65040;HTU21D;51606;45.000;38.612;2022-10-17T13:32:45;15.03;72.35
65040;HTU21D;51606;45.000;38.612;2022-10-17T13:35:14;15.00;72.43
65040;HTU21D;51606;45.000;38.612;2022-10-17T13:37:45;14.98;72.48
65040;HTU21D;51606;45.000;38.612;2022-10-17T13:40:17;14.97;72.51
65040;HTU21D;51606;45.000;38.612;2022-10-17T13:42:44;14.94;72.51
65040;HTU21D;51606;45.000;38.612;2022-10-17T13:45:43;14.94;72.60
65040;HTU21D;51606;45.000;38.612;2022-10-17T13:48:19;14.88;72.58
65040;HTU21D;51606;45.000;38.612;2022-10-17T13:50:48;14.87;72.58
65040;HTU21D;51606;45.000;38.612;2022-10-17T13:53:37;14.84;72.68
65040;HTU21D;51606;45.000;38.612;2022-10-17T13:58:43;14.78;72.72
65040;HTU21D;51606;45.000;38.612;2022-10-17T14:01:11;14.75;72.72
65040;HTU21D;51606;45.000;38.612;2022-10-17T14:03:43;14.71;72.79
65040;HTU21D;51606;45.000;38.612;2022-10-17T14:11:38;14.63;72.90
65040;HTU21D;51606;45.000;38.612;2022-10-17T14:14:07;14.58;72.89
65040;HTU21D;51606;45.000;38.612;2022-10-17T14:16:42;14.55;72.92
65040;HTU21D;51606;45.000;38.612;2022-10-17T14:19:22;14.54;72.99
65040;HTU21D;51606;45.000;38.612;2022-10-17T14:22:13;14.51;72.98
65040;HTU21D;51606;45.000;38.612;2022-10-17T14:24:40;14.47;72.97
65040;HTU21D;51606;45.000;38.612;2022-10-17T14:27:34;14.44;73.08
65040;HTU21D;51606;45.000;38.612;2022-10-17T14:30:05;14.40;73.06
65040;HTU21D;51606;45.000;38.612;2022-10-17T14:32:34;14.37;73.11
65040;HTU21D;51606;45.000;38.612;2022-10-17T14:35:03;14.34;73.15
65040;HTU21D;51606;45.000;38.612;2022-10-17T14:40:04;14.28;73.24
65040;HTU21D;51606;45.000;38.612;2022-10-17T14:42:37;14.25;73.32
65040;HTU21D;51606;45.000;38.612;2022-10-17T14:45:07;14.23;73.34
65040;HTU21D;51606;45.000;38.612;2022-10-17T14:47:37;14.20;73.35
65040;HTU21D;51606;45.000;38.612;2022-10-17T14:50:28;14.20;73.43
65040;HTU21D;51606;45.000;38.612;2022-10-17T14:53:18;14.19;73.38
65040;HTU21D;51606;45.000;38.612;2022-10-17T14:55:59;14.17;73.37
65040;HTU21D;51606;45.000;38.612;2022-10-17T14:58:28;14.14;73.32
65040;HTU21D;51606;45.000;38.612;2022-10-17T15:00:56;14.12;73.35
65040;HTU21D;51606;45.000;38.612;2022-10-17T15:03:24;14.11;73.39
65040;HTU21D;51606;45.000;38.612;2022-10-17T15:05:52;14.07;73.45
65040;HTU21D;51606;45.000;38.612;2022-10-17T15:08:21;14.06;73.51
65040;HTU21D;51606;45.000;38.612;2022-10-17T15:10:49;14.01;73.57
65040;HTU21D;51606;45.000;38.612;2022-10-17T15:13:16;14.01;73.57
65040;HTU21D;51606;45.000;38.612;2022-10-17T15:15:42;13.99;73.60
65040;HTU21D;51606;45.000;38.612;2022-10-17T15:18:11;14.00;73.61
65040;HTU21D;51606;45.000;38.612;2022-10-17T15:20:39;14.00;73.59
65040;HTU21D;51606;45.000;38.612;2022-10-17T15:23:05;13.99;73.63
65040;HTU21D;51606;45.000;38.612;2022-10-17T15:25:31;13.97;73.65
65040;HTU21D;51606;45.000;38.612;2022-10-17T15:28:00;13.95;73.67
65040;HTU21D;51606;45.000;38.612;2022-10-17T15:30:33;13.95;73.69
65040;HTU21D;51606;45.000;38.612;2022-10-17T15:32:59;13.95;73.70
65040;HTU21D;51606;45.000;38.612;2022-10-17T15:35:26;13.94;73.70
65040;HTU21D;51606;45.000;38.612;2022-10-17T15:37:53;13.92;73.74
65040;HTU21D;51606;45.000;38.612;2022-10-17T15:40:29;13.90;73.83
65040;HTU21D;51606;45.000;38.612;2022-10-17T15:42:56;13.86;73.83
65040;HTU21D;51606;45.000;38.612;2022-10-17T15:45:22;13.82;73.89
65040;HTU21D;51606;45.000;38.612;2022-10-17T15:47:53;13.79;73.99
65040;HTU21D;51606;45.000;38.612;2022-10-17T15:50:21;13.74;74.01
65040;HTU21D;51606;45.000;38.612;2022-10-17T15:52:48;13.70;74.11
65040;HTU21D;51606;45.000;38.612;2022-10-17T15:55:18;13.65;74.18
65040;HTU21D;51606;45.000;38.612;2022-10-17T15:58:17;13.60;74.31
65040;HTU21D;51606;45.000;38.612;2022-10-17T16:00:44;13.54;74.27
65040;HTU21D;51606;45.000;38.612;2022-10-17T16:03:25;13.49;74.35
65040;HTU21D;51606;45.000;38.612;2022-10-17T16:05:53;13.45;74.38
65040;HTU21D;51606;45.000;38.612;2022-10-17T16:08:19;13.40;74.45
65040;HTU21D;51606;45.000;38.612;2022-10-17T16:10:45;13.36;74.52
65040;HTU21D;51606;45.000;38.612;2022-10-17T16:13:19;13.33;74.62
65040;HTU21D;51606;45.000;38.612;2022-10-17T16:15:47;13.29;74.58
65040;HTU21D;51606;45.000;38.612;2022-10-17T16:18:13;13.24;74.64
65040;HTU21D;51606;45.000;38.612;2022-10-17T16:20:39;13.19;74.70
65040;HTU21D;51606;45.000;38.612;2022-10-17T16:23:27;13.12;74.89
65040;HTU21D;51606;45.000;38.612;2022-10-17T16:25:54;13.05;74.86
65040;HTU21D;51606;45.000;38.612;2022-10-17T16:28:20;13.02;74.94
65040;HTU21D;51606;45.000;38.612;2022-10-17T16:30:46;12.99;74.98
65040;HTU21D;51606;45.000;38.612;2022-10-17T16:33:14;12.96;75.01
65040;HTU21D;51606;45.000;38.612;2022-10-17T16:35:40;12.93;75.04
65040;HTU21D;51606;45.000;38.612;2022-10-17T16:38:08;12.90;75.09
65040;HTU21D;51606;45.000;38.612;2022-10-17T16:40:37;12.86;75.20
65040;HTU21D;51606;45.000;38.612;2022-10-17T16:43:04;12.81;75.17
65040;HTU21D;51606;45.000;38.612;2022-10-17T16:45:30;12.78;75.21
65040;HTU21D;51606;45.000;38.612;2022-10-17T16:47:57;12.76;75.25
65040;HTU21D;51606;45.000;38.612;2022-10-17T16:50:32;12.73;75.26
65040;HTU21D;51606;45.000;38.612;2022-10-17T16:53:00;12.67;75.31
65040;HTU21D;51606;45.000;38.612;2022-10-17T16:55:28;12.62;75.41
65040;HTU21D;51606;45.000;38.612;2022-10-17T16:57:55;12.56;75.48
65040;HTU21D;51606;45.000;38.612;2022-10-17T17:03:08;12.37;75.71
65040;HTU21D;51606;45.000;38.612;2022-10-17T17:05:38;12.28;75.92
65040;HTU21D;51606;45.000;38.612;2022-10-17T17:08:15;12.15;76.02
65040;HTU21D;51606;45.000;38.612;2022-10-17T17:10:45;12.04;76.21
65040;HTU21D;51606;45.000;38.612;2022-10-17T17:13:12;11.91;76.34
65040;HTU21D;51606;45.000;38.612;2022-10-17T17:16:09;11.81;76.50
65040;HTU21D;51606;45.000;38.612;2022-10-17T17:18:36;11.70;76.54
65040;HTU21D;51606;45.000;38.612;2022-10-17T17:23:52;11.51;76.70
65040;HTU21D;51606;45.000;38.612;2022-10-17T17:26:21;11.43;76.78
65040;HTU21D;51606;45.000;38.612;2022-10-17T17:28:48;11.39;76.81
65040;HTU21D;51606;45.000;38.612;2022-10-17T17:31:35;11.37;76.83
65040;HTU21D;51606;45.000;38.612;2022-10-17T17:34:03;11.37;76.66
65040;HTU21D;51606;45.000;38.612;2022-10-17T17:36:33;11.39;76.58
65040;HTU21D;51606;45.000;38.612;2022-10-17T17:39:01;11.42;76.44
65040;HTU21D;51606;45.000;38.612;2022-10-17T17:41:28;11.46;76.28
65040;HTU21D;51606;45.000;38.612;2022-10-17T17:43:55;11.52;76.20
65040;HTU21D;51606;45.000;38.612;2022-10-17T17:46:23;11.56;76.08
65040;HTU21D;51606;45.000;38.612;2022-10-17T17:48:51;11.62;76.00
65040;HTU21D;51606;45.000;38.612;2022-10-17T17:51:20;11.68;75.91
65040;HTU21D;51606;45.000;38.612;2022-10-17T17:53:47;11.76;75.81
65040;HTU21D;51606;45.000;38.612;2022-10-17T17:56:24;11.81;75.67
65040;HTU21D;51606;45.000;38.612;2022-10-17T17:58:59;11.83;75.63
65040;HTU21D;51606;45.000;38.612;2022-10-17T18:01:29;11.84;75.60
65040;HTU21D;51606;45.000;38.612;2022-10-17T18:03:57;11.86;75.67
65040;HTU21D;51606;45.000;38.612;2022-10-17T18:06:24;11.87;75.66
65040;HTU21D;51606;45.000;38.612;2022-10-17T18:08:53;11.88;75.64
65040;HTU21D;51606;45.000;38.612;2022-10-17T18:11:20;11.90;75.63
65040;HTU21D;51606;45.000;38.612;2022-10-17T18:13:46;11.93;75.62
65040;HTU21D;51606;45.000;38.612;2022-10-17T18:16:13;11.96;75.63
65040;HTU21D;51606;45.000;38.612;2022-10-17T18:18:43;11.99;75.67
65040;HTU21D;51606;45.000;38.612;2022-10-17T18:21:11;12.02;75.67
65040;HTU21D;51606;45.000;38.612;2022-10-17T18:23:39;12.04;75.64
65040;HTU21D;51606;45.000;38.612;2022-10-17T18:37:27;12.07;75.47
65040;HTU21D;51606;45.000;38.612;2022-10-17T18:39:54;12.08;75.55
65040;HTU21D;51606;45.000;38.612;2022-10-17T18:42:22;12.13;75.55
65040;HTU21D;51606;45.000;38.612;2022-10-17T18:44:48;12.17;75.51
65040;HTU21D;51606;45.000;38.612;2022-10-17T18:47:15;12.26;75.48
65040;HTU21D;51606;45.000;38.612;2022-10-17T18:49:41;12.34;75.42
65040;HTU21D;51606;45.000;38.612;2022-10-17T18:52:08;12.40;75.34
65040;HTU21D;51606;45.000;38.612;2022-10-17T18:54:34;12.44;75.31
65040;HTU21D;51606;45.000;38.612;2022-10-17T18:57:00;12.46;75.28
65040;HTU21D;51606;45.000;38.612;2022-10-17T18:59:27;12.48;75.30
65040;HTU21D;51606;45.000;38.612;2022-10-17T19:01:53;12.49;75.32
65040;HTU21D;51606;45.000;38.612;2022-10-17T19:04:19;12.51;75.38
65040;HTU21D;51606;45.000;38.612;2022-10-17T19:06:46;12.50;75.41
65040;HTU21D;51606;45.000;38.612;2022-10-17T19:09:13;12.50;75.45
65040;HTU21D;51606;45.000;38.612;2022-10-17T19:11:40;12.52;75.46
65040;HTU21D;51606;45.000;38.612;2022-10-17T19:14:08;12.51;75.51
65040;HTU21D;51606;45.000;38.612;2022-10-17T19:16:40;12.50;75.54
65040;HTU21D;51606;45.000;38.612;2022-10-17T19:19:14;12.52;75.54
65040;HTU21D;51606;45.000;38.612;2022-10-17T19:21:41;12.51;75.50
65040;HTU21D;51606;45.000;38.612;2022-10-17T19:24:15;12.55;75.50
65040;HTU21D;51606;45.000;38.612;2022-10-17T19:26:42;12.53;75.50
